This is the latest recevied weather packets stored in our database for station/object N6XE-13. If no packets are shown the sender has not sent any weather packets the latest 10 day(s).
| Time | Temp. | Humidity | Pressure | Rain* | Wind** | Luminosity | Snow |
|---|---|---|---|---|---|---|---|
| 1777572005 | 22.22° C | 61% | 1017 hPa | 0 mm | - | - | - |
| 1777570206 | 21.11° C | 62% | 1017 hPa | 0 mm | - | - | - |
| 1777568405 | 20° C | 64% | 1017 hPa | 0 mm | - | - | - |
| 1777566606 | 18.89° C | 67% | 1017.1 hPa | 0 mm | - | - | - |
| 1777564806 | 17.78° C | 70% | 1017.1 hPa | 0 mm | - | - | - |
| 1777563006 | 16.67° C | 77% | 1017 hPa | 0 mm | - | - | - |
| 1777561206 | 15.56° C | 78% | 1017 hPa | 0 mm | - | - | - |
| 1777559406 | 13.89° C | 83% | 1016.8 hPa | 0 mm | - | - | - |
| 1777557606 | 11.67° C | 94% | 1016.6 hPa | 0 mm | - | - | - |
| 1777555806 | 11.67° C | 94% | 1016.4 hPa | 0 mm | - | - | - |
| 1777554006 | 11.11° C | 91% | 1016.5 hPa | 0 mm | - | - | - |
| 1777552205 | 11.11° C | 88% | 1016.4 hPa | 0 mm | - | - | - |
| 1777550405 | 12.22° C | 86% | 1016.5 hPa | 0 mm | - | - | - |
| 1777548605 | 12.22° C | 84% | 1016.6 hPa | 0 mm | - | - | - |
| 1777546805 | 12.78° C | 85% | 1016.6 hPa | 0 mm | - | - | - |
| 1777545005 | 12.78° C | 84% | 1016.8 hPa | 0 mm | - | - | - |
| 1777543205 | 13.33° C | 82% | 1016.9 hPa | 0 mm | - | - | - |
| 1777541405 | 13.89° C | 79% | 1017.1 hPa | 0 mm | - | - | - |
| 1777539606 | 13.89° C | 77% | 1017.4 hPa | 0 mm | - | - | - |
| 1777537806 | 14.44° C | 74% | 1017.5 hPa | 0 mm | - | - | - |
| 1777536006 | 16.11° C | 67% | 1017.6 hPa | 0 mm | - | - | - |
| 1777534206 | 16.67° C | 65% | 1017.6 hPa | 0 mm | - | - | - |
| 1777532406 | 17.22° C | 63% | 1017.5 hPa | 0 mm | - | - | - |
| 1777530606 | 17.22° C | 63% | 1017.5 hPa | 0 mm | - | - | - |
| 1777528806 | 17.78° C | 63% | 1017.7 hPa | 0 mm | - | - | - |
* Rain latest hour (hover to see other rain measurements)
** Current wind speed in m/s (hover to see current wind gust speed)